createdAt,value
2023-09-23T00:01:48.240Z,2.63
2023-09-23T00:06:50.660Z,2.75
2023-09-23T00:11:52.541Z,1.10
2023-09-23T00:16:54.413Z,1.10
2023-09-23T00:21:57.172Z,1.02
2023-09-23T00:27:01.039Z,2.17
2023-09-23T00:32:03.895Z,0.88
2023-09-23T00:37:05.856Z,1.23
2023-09-23T00:42:11.274Z,5.95
2023-09-23T00:47:15.005Z,0.63
2023-09-23T00:52:18.097Z,1.70
2023-09-23T00:57:20.121Z,2.72
2023-09-23T01:02:22.056Z,1.75
2023-09-23T01:07:23.937Z,0.75
2023-09-23T01:12:26.391Z,1.15
2023-09-23T01:17:28.273Z,2.03
2023-09-23T01:22:31.050Z,2.35
2023-09-23T01:27:35.615Z,2.00
2023-09-23T01:32:47.130Z,1.10
2023-09-23T01:37:52.270Z,1.20
2023-09-23T01:42:54.494Z,5.63
2023-09-23T01:47:58.478Z,1.50
2023-09-23T01:53:01.851Z,1.55
2023-09-23T01:58:04.061Z,1.75
2023-09-23T02:03:06.035Z,5.68
2023-09-23T02:08:08.036Z,1.40
2023-09-23T02:13:10.193Z,2.88
2023-09-23T02:18:12.173Z,1.55
2023-09-23T02:23:16.211Z,4.57
2023-09-23T02:28:19.152Z,1.75
2023-09-23T02:33:20.947Z,4.00
2023-09-23T02:38:22.773Z,2.47
2023-09-23T02:43:24.600Z,1.33
2023-09-23T02:48:26.460Z,2.85
2023-09-23T02:53:28.553Z,1.55
2023-09-23T02:58:30.674Z,1.90
2023-09-23T03:03:35.782Z,4.72
2023-09-23T03:08:40.479Z,2.20
2023-09-23T03:13:42.887Z,2.92
2023-09-23T03:19:11.488Z,5.57
2023-09-23T03:24:14.536Z,4.00
2023-09-23T03:29:16.649Z,2.67
2023-09-23T03:34:19.960Z,3.55
2023-09-23T03:39:23.122Z,3.03
2023-09-23T03:44:24.949Z,2.88
2023-09-23T03:49:26.755Z,3.97
2023-09-23T03:54:29.526Z,9.70
2023-09-23T03:59:32.882Z,7.25
2023-09-23T04:04:38.861Z,7.15
2023-09-23T04:09:40.669Z,7.00
2023-09-23T04:14:42.668Z,8.77
2023-09-23T04:19:44.462Z,7.60
2023-09-23T04:24:46.911Z,7.40
2023-09-23T04:29:48.790Z,6.75
2023-09-23T04:34:50.732Z,6.35
2023-09-23T04:39:52.624Z,8.88
2023-09-23T04:44:54.399Z,7.18
2023-09-23T04:49:58.604Z,6.93
2023-09-23T04:55:00.702Z,6.30
2023-09-23T05:00:02.540Z,6.22
2023-09-23T05:05:05.984Z,6.88
2023-09-23T05:10:08.523Z,5.53
2023-09-23T05:15:11.293Z,5.18
2023-09-23T05:20:17.405Z,6.57
2023-09-23T05:25:19.476Z,7.25
2023-09-23T05:30:22.986Z,4.80
2023-09-23T05:35:25.571Z,7.85
2023-09-23T05:40:27.886Z,4.25
2023-09-23T05:45:31.072Z,5.38
2023-09-23T05:50:33.202Z,6.68
2023-09-23T05:55:35.230Z,5.57
2023-09-23T06:00:37.124Z,5.82
2023-09-23T06:05:40.112Z,4.88
2023-09-23T06:10:42.072Z,5.20
2023-09-23T06:15:43.844Z,6.82
2023-09-23T06:20:45.611Z,5.82
2023-09-23T06:25:54.167Z,6.03
2023-09-23T06:30:56.399Z,7.60
2023-09-23T06:36:05.752Z,6.53
2023-09-23T06:41:07.617Z,7.95
2023-09-23T06:46:09.650Z,7.35
2023-09-23T06:51:11.501Z,6.65
2023-09-23T06:56:13.436Z,6.85
2023-09-23T07:01:15.666Z,6.85
2023-09-23T07:06:17.504Z,7.05
2023-09-23T07:11:19.298Z,6.38
2023-09-23T07:16:21.279Z,7.03
2023-09-23T07:21:23.104Z,9.30
2023-09-23T07:26:25.032Z,4.30
2023-09-23T07:31:27.037Z,5.05
2023-09-23T07:36:28.962Z,3.95
2023-09-23T07:41:30.976Z,3.75
2023-09-23T07:46:33.634Z,3.55
2023-09-23T07:51:36.869Z,2.40
2023-09-23T07:56:38.668Z,1.58
2023-09-23T08:01:40.588Z,1.60
2023-09-23T08:06:42.505Z,2.70
2023-09-23T08:11:44.393Z,1.20
2023-09-23T08:16:46.131Z,1.58
2023-09-23T08:21:47.876Z,2.33
2023-09-23T08:26:49.645Z,2.25
2023-09-23T08:31:52.273Z,1.48
2023-09-23T08:36:54.171Z,1.63
2023-09-23T08:41:58.243Z,1.98
2023-09-23T08:47:00.642Z,1.75
2023-09-23T08:52:04.602Z,1.75
2023-09-23T08:57:07.053Z,1.02
2023-09-23T09:02:11.660Z,0.60
2023-09-23T09:07:13.519Z,2.10
2023-09-23T09:12:17.446Z,6.75
2023-09-23T09:17:22.531Z,1.42
2023-09-23T09:22:24.324Z,1.27
2023-09-23T09:27:26.079Z,1.63
2023-09-23T09:32:31.358Z,0.80
2023-09-23T09:37:35.044Z,1.23
2023-09-23T09:42:41.120Z,1.67
2023-09-23T09:47:45.929Z,0.80
2023-09-23T09:52:47.727Z,1.05
2023-09-23T09:57:49.537Z,1.75
2023-09-23T10:02:58.105Z,1.20
2023-09-23T10:08:00.817Z,0.80
2023-09-23T10:13:23.506Z,1.02
2023-09-23T10:18:25.698Z,1.80
2023-09-23T10:23:27.822Z,0.85
2023-09-23T10:28:31.994Z,0.80
2023-09-23T10:33:38.247Z,1.10
2023-09-23T10:38:40.151Z,1.10
2023-09-23T10:43:45.749Z,0.85
2023-09-23T10:48:52.502Z,1.58
2023-09-23T10:53:57.821Z,0.88
2023-09-23T10:59:05.831Z,2.42
2023-09-23T11:04:10.861Z,1.10
2023-09-23T11:09:19.245Z,1.10
2023-09-23T11:19:32.470Z,2.75
2023-09-23T11:24:48.015Z,1.52
2023-09-23T11:29:57.435Z,1.65
2023-09-23T11:35:02.725Z,2.97
2023-09-23T11:40:12.188Z,1.52
2023-09-23T11:45:14.384Z,1.67
2023-09-23T11:50:17.117Z,1.65
2023-09-23T11:55:20.586Z,0.93
2023-09-23T12:00:24.480Z,1.83
2023-09-23T12:05:30.898Z,1.50
2023-09-23T12:10:32.996Z,1.98
2023-09-23T12:15:37.666Z,1.15
2023-09-23T12:20:39.616Z,0.90
2023-09-23T12:25:41.695Z,1.27
2023-09-23T12:30:43.612Z,1.85
2023-09-23T12:35:46.124Z,2.63
2023-09-23T12:40:48.166Z,0.57
2023-09-23T12:45:51.411Z,1.52
2023-09-23T12:50:53.209Z,1.85
2023-09-23T12:55:55.873Z,2.15
2023-09-23T13:00:57.723Z,1.83
2023-09-23T13:06:00.704Z,1.98
2023-09-23T13:11:02.540Z,2.72
2023-09-23T13:16:05.647Z,0.98
2023-09-23T13:21:08.002Z,1.08
2023-09-23T13:26:09.823Z,2.95
2023-09-23T13:31:11.736Z,0.80
2023-09-23T13:36:14.738Z,3.28
2023-09-23T13:41:16.619Z,0.80
2023-09-23T13:46:18.575Z,2.42
2023-09-23T13:51:20.609Z,1.48
2023-09-23T13:56:22.869Z,3.47
2023-09-23T14:01:25.092Z,1.55
2023-09-23T14:06:26.837Z,1.63
2023-09-23T14:11:29.598Z,4.15
2023-09-23T14:16:33.255Z,1.80
2023-09-23T14:21:35.151Z,1.65
2023-09-23T14:26:39.131Z,1.33
2023-09-23T14:31:40.913Z,5.50
2023-09-23T14:36:43.947Z,11.13
2023-09-23T14:41:46.123Z,2.90
2023-09-23T14:46:48.102Z,1.48
2023-09-23T14:51:50.566Z,3.63
2023-09-23T14:56:52.357Z,1.33
2023-09-23T15:01:54.372Z,2.20
2023-09-23T15:07:00.180Z,2.60
2023-09-23T15:12:02.275Z,2.97
2023-09-23T15:17:04.128Z,4.22
2023-09-23T15:22:06.037Z,2.47
2023-09-23T15:27:09.679Z,2.70
2023-09-23T15:32:12.394Z,3.08
2023-09-23T15:37:14.543Z,2.50
2023-09-23T15:42:16.485Z,5.25
2023-09-23T15:47:19.543Z,4.22
2023-09-23T15:52:22.788Z,3.33
2023-09-23T15:57:24.691Z,4.68
2023-09-23T16:02:26.571Z,2.90
2023-09-23T16:07:29.566Z,2.67
2023-09-23T16:12:31.513Z,2.40
2023-09-23T16:17:33.565Z,1.75
2023-09-23T16:22:35.503Z,1.75
2023-09-23T16:27:41.595Z,2.33
2023-09-23T16:32:43.428Z,1.35
2023-09-23T16:37:45.342Z,1.35
2023-09-23T16:42:47.831Z,3.45
2023-09-23T16:47:51.100Z,1.40
2023-09-23T16:52:54.245Z,2.55
2023-09-23T16:57:56.630Z,2.03
2023-09-23T17:02:58.783Z,1.52
2023-09-23T17:08:00.937Z,1.95
2023-09-23T17:13:02.790Z,5.63
2023-09-23T17:18:04.903Z,2.17
2023-09-23T17:23:07.358Z,2.33
2023-09-23T17:28:09.191Z,1.23
2023-09-23T17:33:12.302Z,3.42
2023-09-23T17:38:14.250Z,1.65
2023-09-23T17:43:16.709Z,5.60
2023-09-23T17:48:18.651Z,1.58
2023-09-23T17:53:20.534Z,1.15
2023-09-23T17:58:22.379Z,2.70
2023-09-23T18:03:26.365Z,4.65
2023-09-23T18:08:28.316Z,2.22
2023-09-23T18:13:30.258Z,4.80
2023-09-23T18:18:32.226Z,3.67
2023-09-23T18:23:34.427Z,4.15
2023-09-23T18:28:36.883Z,3.00
2023-09-23T18:33:38.824Z,4.82
2023-09-23T18:38:40.946Z,2.72
2023-09-23T18:43:43.888Z,4.57
2023-09-23T18:48:45.881Z,2.85
2023-09-23T18:53:48.097Z,2.38
2023-09-23T18:58:50.105Z,3.80
2023-09-23T19:03:53.024Z,2.28
2023-09-23T19:08:55.309Z,2.10
2023-09-23T19:13:58.357Z,1.35
2023-09-23T19:19:00.138Z,2.25
2023-09-23T19:24:02.326Z,2.08
2023-09-23T19:29:04.337Z,2.90
2023-09-23T19:34:08.559Z,1.77
2023-09-23T19:39:13.376Z,3.35
2023-09-23T19:44:15.440Z,2.88
2023-09-23T19:49:18.106Z,2.33
2023-09-23T19:54:26.564Z,5.57
2023-09-23T19:59:28.658Z,2.45
2023-09-23T20:04:32.406Z,1.95
2023-09-23T20:09:34.395Z,1.50
2023-09-23T20:14:38.438Z,2.97
2023-09-23T20:19:40.278Z,3.33
2023-09-23T20:24:42.069Z,2.05
2023-09-23T20:29:59.806Z,2.38
2023-09-23T20:35:10.491Z,2.95
2023-09-23T20:40:14.024Z,1.30
2023-09-23T20:45:16.000Z,2.28
2023-09-23T20:50:18.011Z,5.10
2023-09-23T20:55:20.102Z,3.33
2023-09-23T21:00:23.004Z,4.88
2023-09-23T21:05:24.944Z,1.40
2023-09-23T21:10:26.771Z,1.98
2023-09-23T21:15:29.605Z,2.58
2023-09-23T21:20:31.789Z,2.72
2023-09-23T21:25:33.653Z,2.10
2023-09-23T21:30:37.653Z,5.35
2023-09-23T21:35:40.759Z,3.97
2023-09-23T21:40:43.926Z,3.05
2023-09-23T21:45:45.815Z,5.53
2023-09-23T21:50:59.089Z,2.03
2023-09-23T21:56:04.090Z,4.03
2023-09-23T22:01:08.567Z,4.10
2023-09-23T22:06:11.213Z,2.63
2023-09-23T22:11:13.391Z,4.13
2023-09-23T22:16:15.649Z,1.83
2023-09-23T22:21:19.111Z,2.25
2023-09-23T22:26:21.040Z,3.45
2023-09-23T22:31:27.810Z,3.25
2023-09-23T22:36:33.789Z,1.58
2023-09-23T22:41:35.972Z,4.25
2023-09-23T22:46:39.669Z,4.40
2023-09-23T22:51:42.703Z,2.35
2023-09-23T22:56:46.264Z,1.98
2023-09-23T23:01:48.143Z,5.30
2023-09-23T23:06:51.406Z,4.22
2023-09-23T23:11:53.350Z,3.00
2023-09-23T23:16:55.292Z,2.08
2023-09-23T23:21:57.037Z,1.33
2023-09-23T23:26:59.711Z,2.47
2023-09-23T23:32:03.724Z,1.30
2023-09-23T23:37:07.122Z,3.90
2023-09-23T23:42:11.182Z,1.63
2023-09-23T23:47:13.425Z,2.83
2023-09-23T23:52:16.760Z,1.48
2023-09-23T23:57:18.654Z,5.43
